Terminal Aerodrome Forecast
Issued by NWS

Home | Current Version | Previous Version | Graphics & Text | Print | Product List | Glossary On
Versions: 1 2 3 4 5 6 7 8 9 10 11 12 13 14 15 16
485
FTUS43 KMPX 161734
TAFRWF
TAF
KRWF 161734Z 1618/1718 21013KT P6SM SKC
     FM162300 19013KT P6SM BKN250
     FM170500 20011KT P6SM BKN100
     FM171200 23006KT P6SM OVC100
     FM171700 30007KT 6SM -SN OVC050=

USA.gov is the U.S. government's official web portal to all federal, state and local government web resources and services.